Time;durP1;ratioP1;P1;durP2;ratioP2;P2;SDS_P1;SDS_P2;PMS_P1;PMS_P2;Temp;Humidity;BMP_temperature;BMP_pressure;BME280_temperature;BME280_humidity;BME280_pressure;Samples;Min_cycle;Max_cycle;Signal;HPM_P1;HPM_P2
2023/07/29 04:22:33;;;;;;;3.17;1.95;;;;;;;16.60;100.00;99609.19;5109967;27;20396;-70
2023/07/29 04:24:59;;;;;;;7.40;3.08;;;;;;;16.63;100.00;99612.25;5108678;28;20031;-70
2023/07/29 04:27:24;;;;;;;2.60;1.95;;;;;;;16.70;100.00;99614.88;5091451;28;20043;-70
2023/07/29 04:29:50;;;;;;;2.75;2.20;;;;;;;16.75;100.00;99612.28;5108117;28;20035;-70
2023/07/29 04:32:15;;;;;;;3.30;1.70;;;;;;;16.77;100.00;99591.41;5109793;28;20056;-69
2023/07/29 04:34:41;;;;;;;1.63;1.45;;;;;;;16.81;100.00;99587.19;5108434;28;20036;-70
2023/07/29 04:37:07;;;;;;;2.85;1.40;;;;;;;16.85;100.00;99590.25;5109601;28;20040;-70
2023/07/29 04:39:33;;;;;;;1.70;1.38;;;;;;;16.86;100.00;99581.13;5108057;28;20077;-70
2023/07/29 04:41:58;;;;;;;3.10;1.50;;;;;;;16.82;100.00;99588.81;5108077;28;20036;-70
2023/07/29 04:44:24;;;;;;;2.67;1.40;;;;;;;16.81;100.00;99589.88;5108115;28;20039;-70
2023/07/29 04:46:49;;;;;;;3.80;1.65;;;;;;;16.81;100.00;99592.56;5109603;28;20035;-70
2023/07/29 04:49:15;;;;;;;3.85;1.25;;;;;;;16.81;100.00;99596.06;5109159;28;20562;-70
2023/07/29 04:51:40;;;;;;;1.77;1.20;;;;;;;16.84;100.00;99600.19;5108092;28;20032;-70
2023/07/29 04:54:05;;;;;;;3.47;1.30;;;;;;;16.83;100.00;99601.22;5108045;28;20453;-70
2023/07/29 04:56:31;;;;;;;1.90;1.40;;;;;;;16.87;100.00;99597.00;5109229;28;20043;-70
2023/07/29 04:58:56;;;;;;;1.73;1.27;;;;;;;16.90;100.00;99591.19;5108791;28;20063;-71
2023/07/29 05:01:22;;;;;;;1.67;1.30;;;;;;;16.96;100.00;99584.06;5109116;28;20040;-70
2023/07/29 05:03:47;;;;;;;1.88;1.40;;;;;;;16.94;100.00;99578.91;5107899;28;20119;-71
2023/07/29 05:06:13;;;;;;;1.95;1.23;;;;;;;16.96;100.00;99579.50;5107876;28;20128;-70
2023/07/29 05:08:38;;;;;;;1.92;1.40;;;;;;;16.98;100.00;99577.41;5108821;28;20032;-70
2023/07/29 05:11:04;;;;;;;2.75;2.00;;;;;;;16.99;100.00;99589.81;5108986;28;20461;-70
2023/07/29 05:13:29;;;;;;;7.75;1.70;;;;;;;17.02;100.00;99588.53;5107510;28;20031;-70
2023/07/29 05:15:56;;;;;;;3.13;1.70;;;;;;;17.05;100.00;99585.38;5107490;28;20038;-70
2023/07/29 05:18:21;;;;;;;3.22;1.60;;;;;;;17.07;100.00;99589.47;5107299;28;20404;-70
2023/07/29 05:20:47;;;;;;;4.07;1.73;;;;;;;17.11;100.00;99587.13;5090398;28;20127;-71
2023/07/29 05:23:13;;;;;;;2.13;1.38;;;;;;;17.15;100.00;99592.84;5107464;28;20035;-71
2023/07/29 05:25:38;;;;;;;3.78;1.55;;;;;;;17.19;100.00;99594.88;5108722;28;20036;-68
2023/07/29 05:28:04;;;;;;;1.55;1.20;;;;;;;17.24;100.00;99602.25;5107357;28;20118;-70
2023/07/29 05:30:33;;;;;;;2.83;1.67;;;;;;;17.27;100.00;99597.22;5108258;28;20047;-70
2023/07/29 05:33:00;;;;;;;2.20;1.67;;;;;;;17.31;100.00;99579.56;5098905;28;20028;-70
2023/07/29 05:35:25;;;;;;;2.00;1.50;;;;;;;17.36;100.00;99576.16;5094933;28;20040;-71
2023/07/29 05:37:51;;;;;;;2.20;1.50;;;;;;;17.43;100.00;99587.63;5093589;28;20028;-70
2023/07/29 05:40:17;;;;;;;2.67;1.65;;;;;;;17.49;100.00;99588.56;5093348;28;20571;-70
2023/07/29 05:42:44;;;;;;;2.95;1.85;;;;;;;17.56;100.00;99590.09;5093361;28;20386;-70
2023/07/29 05:45:11;;;;;;;4.80;1.80;;;;;;;17.61;100.00;99581.31;5093430;28;20093;-70
2023/07/29 05:47:36;;;;;;;3.47;1.80;;;;;;;17.63;100.00;99588.09;5093484;28;20046;-70
2023/07/29 05:50:04;;;;;;;2.90;1.60;;;;;;;17.73;100.00;99597.47;5093162;28;20032;-70
2023/07/29 05:52:30;;;;;;;2.53;1.70;;;;;;;17.79;100.00;99600.06;5094545;28;20048;-70
2023/07/29 05:54:56;;;;;;;2.90;1.63;;;;;;;17.89;100.00;99604.84;5094487;28;20036;-70
2023/07/29 05:57:21;;;;;;;2.72;1.38;;;;;;;17.95;100.00;99608.50;5092992;28;20093;-70
2023/07/29 05:59:46;;;;;;;2.47;1.70;;;;;;;17.99;100.00;99610.44;5092912;28;20044;-70
2023/07/29 06:02:12;;;;;;;2.80;1.75;;;;;;;18.04;100.00;99612.44;5093225;28;20032;-70
2023/07/29 06:04:37;;;;;;;1.80;1.55;;;;;;;18.08;100.00;99613.63;5093227;28;20074;-70
2023/07/29 06:07:03;;;;;;;2.10;1.80;;;;;;;18.11;100.00;99611.25;5093097;28;20520;-70
2023/07/29 06:09:28;;;;;;;3.33;2.15;;;;;;;18.13;100.00;99611.84;5094006;28;20039;-70
2023/07/29 06:11:54;;;;;;;2.28;1.88;;;;;;;18.16;100.00;99615.94;5092915;28;20036;-70
2023/07/29 06:14:19;;;;;;;3.67;1.48;;;;;;;18.16;100.00;99616.75;5092981;28;20074;-70
2023/07/29 06:16:46;;;;;;;3.35;1.80;;;;;;;18.22;100.00;99624.94;5094144;28;20103;-70
2023/07/29 06:19:11;;;;;;;2.45;1.90;;;;;;;18.25;100.00;99635.25;5093807;28;20576;-70
2023/07/29 06:21:36;;;;;;;6.82;1.83;;;;;;;18.29;100.00;99649.91;5092651;28;20032;-71
2023/07/29 06:24:03;;;;;;;3.33;1.77;;;;;;;18.30;100.00;99648.84;5092833;28;20040;-71
2023/07/29 06:26:28;;;;;;;2.13;1.55;;;;;;;18.35;100.00;99651.63;5092629;28;20048;-70
2023/07/29 06:28:53;;;;;;;3.30;1.98;;;;;;;18.37;100.00;99650.34;5092365;28;20050;-70
2023/07/29 06:31:19;;;;;;;3.60;1.90;;;;;;;18.44;100.00;99640.22;5093811;28;20040;-70
2023/07/29 06:33:44;;;;;;;2.72;2.20;;;;;;;18.51;100.00;99639.28;5087180;28;20106;-70
2023/07/29 06:36:10;;;;;;;3.25;1.92;;;;;;;18.62;100.00;99644.63;5073547;28;20049;-71
2023/07/29 06:38:35;;;;;;;3.58;1.80;;;;;;;18.67;100.00;99647.47;5073161;28;20049;-70
2023/07/29 06:41:01;;;;;;;3.25;1.70;;;;;;;18.72;100.00;99657.53;5073402;28;20016;-70
2023/07/29 06:43:26;;;;;;;3.05;1.70;;;;;;;18.76;100.00;99663.25;5073079;28;20047;-70
2023/07/29 06:45:51;;;;;;;2.40;1.92;;;;;;;18.79;100.00;99668.19;5072622;28;20037;-70
2023/07/29 06:48:18;;;;;;;2.65;1.70;;;;;;;18.79;100.00;99669.00;5073199;28;20459;-70
2023/07/29 06:50:44;;;;;;;4.60;2.47;;;;;;;18.77;100.00;99662.19;5073066;28;20093;-70
2023/07/29 06:53:09;;;;;;;1.80;1.27;;;;;;;18.84;100.00;99660.16;5092965;28;20119;-71
2023/07/29 06:55:34;;;;;;;4.22;1.92;;;;;;;18.87;100.00;99660.53;5093419;28;20103;-70
2023/07/29 06:58:00;;;;;;;2.05;1.45;;;;;;;18.89;100.00;99661.09;5093383;28;20677;-70
2023/07/29 07:00:25;;;;;;;4.93;1.77;;;;;;;18.94;100.00;99658.50;5093138;28;20032;-70
2023/07/29 07:02:51;;;;;;;2.47;1.52;;;;;;;18.98;100.00;99650.75;5093436;28;20555;-70
2023/07/29 07:05:16;;;;;;;1.90;1.13;;;;;;;18.99;100.00;99665.88;5093267;28;20040;-71
2023/07/29 07:07:42;;;;;;;3.08;1.63;;;;;;;19.01;100.00;99654.81;5092020;28;20042;-70
2023/07/29 07:10:07;;;;;;;3.25;1.75;;;;;;;19.03;100.00;99642.72;5092812;28;20496;-71
2023/07/29 07:12:33;;;;;;;2.72;1.33;;;;;;;19.10;100.00;99658.75;5093068;28;20044;-51
2023/07/29 07:14:58;;;;;;;3.05;1.40;;;;;;;19.16;100.00;99652.38;5092980;28;20082;-53
2023/07/29 07:17:23;;;;;;;1.70;1.60;;;;;;;19.19;100.00;99647.34;5092915;28;20028;-56
2023/07/29 07:19:49;;;;;;;2.22;1.10;;;;;;;19.34;100.00;99654.03;5092690;28;20378;-53
2023/07/29 07:22:16;;;;;;;2.28;1.58;;;;;;;19.45;100.00;99655.84;5092901;28;20516;-52
2023/07/29 07:24:41;;;;;;;3.42;1.48;;;;;;;19.52;100.00;99648.41;5092801;28;20043;-52
2023/07/29 07:27:06;;;;;;;2.78;1.45;;;;;;;19.63;100.00;99649.44;5092742;28;20044;-55
2023/07/29 07:29:32;;;;;;;3.55;1.40;;;;;;;19.75;100.00;99653.63;5092477;28;20081;-55
2023/07/29 07:31:57;;;;;;;2.00;1.30;;;;;;;19.91;100.00;99654.69;5092619;28;20405;-56
2023/07/29 07:34:23;;;;;;;1.73;1.40;;;;;;;20.05;100.00;99649.75;5092683;28;20048;-51
2023/07/29 07:36:49;;;;;;;1.50;1.40;;;;;;;20.17;100.00;99655.88;5092598;28;20093;-55
2023/07/29 07:39:15;;;;;;;2.70;1.50;;;;;;;20.30;100.00;99654.69;5092205;28;20048;-53
2023/07/29 07:41:41;;;;;;;2.45;1.67;;;;;;;20.38;100.00;99650.72;5092444;28;20028;-54
2023/07/29 07:44:08;;;;;;;2.25;1.50;;;;;;;20.54;100.00;99645.28;5091424;28;20028;-52
2023/07/29 07:46:33;;;;;;;2.03;1.38;;;;;;;20.73;100.00;99647.63;5092508;28;20407;-52
2023/07/29 07:48:59;;;;;;;3.65;1.77;;;;;;;20.91;100.00;99652.69;5091997;28;20040;-66
2023/07/29 07:51:24;;;;;;;1.45;1.17;;;;;;;21.07;100.00;99657.22;5092345;28;20044;-66
2023/07/29 07:53:49;;;;;;;2.10;1.20;;;;;;;21.20;100.00;99660.56;5092210;28;20040;-66
2023/07/29 07:56:15;;;;;;;1.48;1.33;;;;;;;21.17;100.00;99659.19;5092053;28;20054;-64
2023/07/29 07:58:40;;;;;;;2.50;1.65;;;;;;;21.29;100.00;99668.00;5092061;28;20039;-65
2023/07/29 08:01:07;;;;;;;1.13;0.95;;;;;;;21.32;100.00;99664.78;5092389;28;20524;-64
2023/07/29 08:03:33;;;;;;;1.30;1.00;;;;;;;21.38;100.00;99658.31;5092299;28;20042;-65
2023/07/29 08:05:59;;;;;;;2.35;1.10;;;;;;;21.39;100.00;99662.69;5092082;28;20492;-64
2023/07/29 08:08:26;;;;;;;1.33;1.13;;;;;;;21.42;100.00;99668.63;5091931;28;20062;-64
2023/07/29 08:10:54;;;;;;;3.22;1.00;;;;;;;21.34;100.00;99669.94;5091989;28;20062;-64
2023/07/29 08:13:19;;;;;;;2.78;1.33;;;;;;;21.35;100.00;99676.97;5092189;28;20122;-65
2023/07/29 08:15:47;;;;;;;1.90;1.05;;;;;;;21.42;100.00;99674.06;5091821;28;20068;-65
2023/07/29 08:18:12;;;;;;;3.22;1.35;;;;;;;21.54;100.00;99682.84;5092055;28;20102;-66
2023/07/29 08:20:37;;;;;;;1.70;1.20;;;;;;;21.63;100.00;99673.13;5091583;28;20448;-65
2023/07/29 08:23:04;;;;;;;2.20;1.17;;;;;;;21.77;100.00;99676.22;5092002;28;20092;-64
2023/07/29 08:25:29;;;;;;;1.48;1.15;;;;;;;21.73;100.00;99681.34;5091879;28;20039;-63
2023/07/29 08:27:54;;;;;;;1.83;1.15;;;;;;;21.66;100.00;99684.28;5092078;28;20516;-65
2023/07/29 08:30:20;;;;;;;3.65;1.67;;;;;;;21.59;100.00;99683.69;5091510;28;20503;-64
2023/07/29 08:32:45;;;;;;;1.10;0.95;;;;;;;21.34;100.00;99692.41;5092023;28;20040;-63
2023/07/29 08:35:11;;;;;;;1.52;1.10;;;;;;;21.10;100.00;99685.66;5091860;28;20516;-65
2023/07/29 08:37:36;;;;;;;1.33;1.10;;;;;;;20.99;100.00;99682.00;5091894;28;20075;-65
2023/07/29 08:40:02;;;;;;;1.27;0.90;;;;;;;20.88;100.00;99677.59;5091542;28;20044;-64
2023/07/29 08:42:31;;;;;;;2.35;1.67;;;;;;;20.75;100.00;99700.44;5091806;28;20507;-65
2023/07/29 08:45:06;;;;;;;4.93;1.30;;;;;;;20.66;100.00;99712.75;5091741;28;20040;-65
2023/07/29 08:47:31;;;;;;;2.90;1.30;;;;;;;20.44;100.00;99703.81;5091643;28;20473;-65
2023/07/29 08:49:59;;;;;;;2.30;1.67;;;;;;;20.24;100.00;99712.47;5091515;28;20119;-65
2023/07/29 08:52:25;;;;;;;1.85;1.40;;;;;;;20.02;100.00;99707.84;5091419;28;20496;-65
2023/07/29 08:54:52;;;;;;;4.07;1.58;;;;;;;19.86;100.00;99702.44;5091818;28;20040;-65
2023/07/29 08:57:19;;;;;;;2.83;1.73;;;;;;;19.78;100.00;99707.19;5091709;28;20051;-65
2023/07/29 08:59:45;;;;;;;2.53;1.65;;;;;;;19.69;100.00;99708.69;5091476;28;20412;-64
2023/07/29 09:02:11;;;;;;;2.58;1.45;;;;;;;19.65;100.00;99710.25;5091359;28;20032;-64
2023/07/29 09:04:36;;;;;;;2.10;1.40;;;;;;;19.64;100.00;99707.78;5091728;28;20040;-64
2023/07/29 09:07:02;;;;;;;1.65;1.48;;;;;;;19.63;100.00;99706.16;5091505;28;20040;-65
2023/07/29 09:09:28;;;;;;;1.75;1.38;;;;;;;19.63;100.00;99704.28;5095179;28;20508;-65
2023/07/29 09:11:54;;;;;;;2.60;1.70;;;;;;;19.67;100.00;99701.88;5095379;28;20059;-65
2023/07/29 09:14:20;;;;;;;3.00;1.80;;;;;;;19.76;100.00;99703.94;5096078;28;20039;-64
2023/07/29 09:16:46;;;;;;;3.15;2.00;;;;;;;19.84;100.00;99700.00;5095088;28;20032;-64
2023/07/29 09:19:11;;;;;;;2.28;2.03;;;;;;;19.97;100.00;99693.44;5094988;28;20043;-64
2023/07/29 09:21:39;;;;;;;2.78;1.42;;;;;;;20.22;100.00;99682.16;5093822;28;20031;-64
2023/07/29 09:24:07;;;;;;;2.95;1.50;;;;;;;20.57;100.00;99682.63;5095304;28;20042;-64
2023/07/29 09:26:32;;;;;;;1.98;1.30;;;;;;;20.93;100.00;99682.22;5094980;28;20044;-64
2023/07/29 09:28:59;;;;;;;2.55;1.48;;;;;;;21.32;100.00;99691.88;5094815;28;20039;-64
2023/07/29 09:31:26;;;;;;;2.03;1.10;;;;;;;21.56;100.00;99691.50;5095036;28;20036;-64
2023/07/29 09:33:59;;;;;;;1.70;1.23;;;;;;;21.68;100.00;99700.28;5094987;28;20481;-64
2023/07/29 09:36:26;;;;;;;1.88;1.10;;;;;;;21.97;100.00;99705.34;5094821;28;20039;-64
2023/07/29 09:38:55;;;;;;;2.78;0.98;;;;;;;22.19;100.00;99706.91;5094614;28;20495;-64
2023/07/29 09:41:25;;;;;;;2.45;1.33;;;;;;;22.16;100.00;99690.31;5094834;28;20665;-64
2023/07/29 09:44:02;;;;;;;1.15;0.98;;;;;;;22.24;100.00;99692.56;5094799;28;20055;-64
2023/07/29 09:46:35;;;;;;;1.58;1.10;;;;;;;22.36;100.00;99695.84;5094666;28;20174;-64
2023/07/29 09:49:03;;;;;;;2.13;1.17;;;;;;;22.40;100.00;99688.00;5094497;28;20036;-64
2023/07/29 09:51:28;;;;;;;2.42;1.17;;;;;;;22.82;100.00;99696.06;5094595;28;20032;-64
2023/07/29 09:53:53;;;;;;;1.35;1.17;;;;;;;22.95;100.00;99681.16;5094764;28;20396;-64
2023/07/29 09:56:28;;;;;;;2.08;1.10;;;;;;;23.26;100.00;99692.91;5094527;28;20035;-64
2023/07/29 09:58:57;;;;;;;1.77;1.17;;;;;;;23.25;100.00;99705.69;5094327;28;20047;-64
2023/07/29 10:01:23;;;;;;;1.00;0.90;;;;;;;23.24;100.00;99695.09;5094447;28;20062;-63
2023/07/29 10:03:49;;;;;;;0.98;0.90;;;;;;;23.18;100.00;99701.59;5094339;28;20050;-64
2023/07/29 10:06:17;;;;;;;1.67;1.00;;;;;;;23.04;100.00;99714.88;5094338;28;20054;-64
2023/07/29 10:08:43;;;;;;;;;;;;;;;22.94;100.00;99714.84;5094569;28;20040;-63
2023/07/29 10:11:10;;;;;;;2.15;1.00;;;;;;;22.80;100.00;99709.06;5094354;28;20014;-64
2023/07/29 10:13:36;;;;;;;1.10;1.00;;;;;;;22.62;100.00;99713.06;5093748;28;20469;-64
2023/07/29 10:16:02;;;;;;;1.33;0.93;;;;;;;22.57;100.00;99709.53;5093033;28;20103;-66
2023/07/29 10:18:29;;;;;;;2.58;1.05;;;;;;;22.47;100.00;99715.72;5093911;28;20031;-65
2023/07/29 10:20:57;;;;;;;2.00;1.05;;;;;;;22.41;100.00;99723.03;5092823;28;20044;-65
2023/07/29 10:23:25;;;;;;;2.00;1.00;;;;;;;22.40;100.00;99726.00;5093902;28;20044;-65
2023/07/29 10:26:03;;;;;;;1.02;0.80;;;;;;;22.44;100.00;99719.78;5094118;28;20023;-65
2023/07/29 10:28:30;;;;;;;2.53;1.10;;;;;;;22.44;100.00;99724.41;5093756;28;20447;-65
2023/07/29 10:30:57;;;;;;;1.27;1.05;;;;;;;22.40;100.00;99726.81;5094049;28;20028;-66
2023/07/29 10:33:22;;;;;;;1.05;0.80;;;;;;;22.50;100.00;99717.13;5093893;28;20072;-66
2023/07/29 10:35:49;;;;;;;1.85;1.00;;;;;;;22.72;100.00;99721.25;5093943;28;20075;-66
2023/07/29 10:38:16;;;;;;;1.85;0.82;;;;;;;22.75;100.00;99717.19;5093708;28;20450;-66
2023/07/29 10:40:46;;;;;;;1.83;1.23;;;;;;;22.93;97.81;99711.31;5085511;28;20402;-65
2023/07/29 10:43:18;;;;;;;1.67;0.85;;;;;;;23.49;97.13;99716.03;5073390;28;20040;-65
2023/07/29 10:45:43;;;;;;;1.77;0.88;;;;;;;24.12;95.06;99713.84;5073492;28;20119;-65
2023/07/29 10:48:13;;;;;;;2.42;0.93;;;;;;;24.90;89.91;99699.69;5080375;28;20163;-64
2023/07/29 10:50:39;;;;;;;2.05;0.98;;;;;;;25.37;87.16;99701.91;5089910;28;20174;-65
2023/07/29 10:53:04;;;;;;;1.13;0.85;;;;;;;25.81;83.61;99692.81;5093331;28;20120;-65
2023/07/29 10:55:36;;;;;;;2.33;1.77;;;;;;;26.07;78.45;99690.63;5093181;28;20401;-64
2023/07/29 10:58:05;;;;;;;0.98;0.85;;;;;;;26.32;81.21;99680.56;5092998;28;20123;-64
2023/07/29 11:00:31;;;;;;;1.30;0.90;;;;;;;26.37;75.04;99691.44;5092382;28;20028;-63
2023/07/29 11:03:03;;;;;;;1.25;1.02;;;;;;;26.44;76.52;99691.91;5092759;28;20546;-65
2023/07/29 11:05:43;;;;;;;2.28;0.98;;;;;;;26.11;77.66;99691.69;5093126;28;20040;-65
2023/07/29 11:08:18;;;;;;;0.68;0.60;;;;;;;26.49;77.55;99686.41;5092993;28;20366;-65
2023/07/29 11:10:46;;;;;;;1.48;0.82;;;;;;;26.12;78.11;99687.06;5092847;28;20065;-64
2023/07/29 11:13:12;;;;;;;1.58;1.00;;;;;;;26.61;77.64;99680.53;5093013;28;20038;-65
2023/07/29 11:15:38;;;;;;;2.97;1.20;;;;;;;26.90;70.86;99681.19;5092618;28;20093;-65
2023/07/29 11:18:06;;;;;;;1.70;0.90;;;;;;;26.77;70.82;99677.28;5088898;28;20032;-65
2023/07/29 11:20:32;;;;;;;;;;;;;;;27.34;70.51;99685.50;5072144;28;20068;-65
2023/07/29 11:23:02;;;;;;;1.50;0.90;;;;;;;27.40;64.05;99691.72;5072578;28;19917;-64
2023/07/29 11:25:29;;;;;;;2.78;1.30;;;;;;;27.54;65.17;99693.38;5072416;28;20105;-65
2023/07/29 11:27:55;;;;;;;;;;;;;;;27.00;61.33;99693.91;5073021;28;20115;-65
2023/07/29 11:30:22;;;;;;;1.65;1.00;;;;;;;26.69;65.91;99688.88;5070822;28;19912;-66
2023/07/29 11:32:47;;;;;;;2.15;1.38;;;;;;;26.27;64.71;99677.88;5072213;28;20039;-66
2023/07/29 11:35:17;;;;;;;2.90;1.25;;;;;;;26.21;63.67;99679.84;5072393;28;20032;-65
2023/07/29 11:37:48;;;;;;;2.40;1.40;;;;;;;26.13;61.61;99675.03;5072370;28;20044;-65
2023/07/29 11:40:19;;;;;;;2.58;1.52;;;;;;;26.57;59.83;99665.81;5071548;28;20082;-65
2023/07/29 11:42:46;;;;;;;2.30;1.40;;;;;;;26.87;59.74;99668.16;5071145;28;20456;-64
2023/07/29 11:45:13;;;;;;;2.47;1.50;;;;;;;26.86;59.80;99657.50;5070565;28;20032;-65
2023/07/29 11:47:38;;;;;;;;;;;;;;;26.46;59.84;99671.38;5072711;28;20044;-65
2023/07/29 11:50:06;;;;;;;2.10;1.40;;;;;;;26.54;61.06;99660.91;5090277;28;19919;-65
2023/07/29 11:52:33;;;;;;;3.17;1.52;;;;;;;26.21;61.08;99658.84;5091253;28;20584;-65
2023/07/29 11:55:00;;;;;;;;;;;;;;;26.17;58.80;99667.91;5092631;28;20032;-64
2023/07/29 11:57:25;;;;;;;2.83;1.80;;;;;;;26.57;59.78;99665.81;5091056;28;20118;-65
2023/07/29 11:59:50;;;;;;;2.38;1.40;;;;;;;26.95;55.07;99659.28;5091477;28;20543;-64
2023/07/29 12:02:19;;;;;;;4.03;2.20;;;;;;;27.58;55.37;99647.91;5092318;28;20040;-66
2023/07/29 12:04:47;;;;;;;3.53;1.73;;;;;;;27.88;52.83;99651.22;5092353;28;20028;-50
2023/07/29 12:07:14;;;;;;;3.78;1.65;;;;;;;27.85;51.29;99643.63;5092184;28;20059;-56
2023/07/29 12:09:41;;;;;;;2.92;1.45;;;;;;;28.22;52.86;99648.09;5091929;28;20044;-51
2023/07/29 12:12:07;;;;;;;6.53;2.22;;;;;;;28.63;51.90;99639.09;5091093;28;20554;-50
2023/07/29 12:14:34;;;;;;;3.25;1.90;;;;;;;29.11;49.25;99631.13;5092078;28;20034;-63
2023/07/29 12:17:04;;;;;;;2.80;1.77;;;;;;;29.36;48.47;99635.19;5091882;28;20032;-56
2023/07/29 12:19:36;;;;;;;3.22;2.00;;;;;;;29.42;44.96;99631.19;5091767;28;20426;-63
2023/07/29 12:22:03;;;;;;;4.55;2.92;;;;;;;29.77;45.09;99625.13;5091936;28;20173;-66
2023/07/29 12:24:33;;;;;;;3.17;1.80;;;;;;;29.50;43.56;99623.34;5092252;28;20043;-65
2023/07/29 12:26:59;;;;;;;4.25;2.25;;;;;;;29.13;43.84;99650.00;5091977;28;20377;-64
2023/07/29 12:29:25;;;;;;;4.15;1.73;;;;;;;29.20;44.29;99637.47;5091783;28;20040;-64
2023/07/29 12:32:00;;;;;;;2.80;1.80;;;;;;;29.50;44.69;99643.34;5091896;28;20162;-64
2023/07/29 12:34:30;;;;;;;4.43;2.63;;;;;;;29.75;46.14;99644.66;5092074;28;20032;-65
2023/07/29 12:36:58;;;;;;;3.20;2.03;;;;;;;29.87;43.45;99644.88;5091791;28;20120;-64
2023/07/29 12:39:24;;;;;;;3.80;2.55;;;;;;;30.63;43.72;99636.41;5091611;28;20032;-65
2023/07/29 12:41:51;;;;;;;3.65;1.98;;;;;;;30.63;42.50;99641.91;5091983;28;20101;-65
2023/07/29 12:44:17;;;;;;;3.33;1.65;;;;;;;30.63;42.25;99643.84;5095766;28;20114;-65
2023/07/29 12:46:42;;;;;;;3.83;1.98;;;;;;;30.27;43.73;99648.47;5095874;28;20497;-65
2023/07/29 12:49:08;;;;;;;3.65;1.75;;;;;;;29.58;44.36;99631.63;5095594;28;20115;-65
2023/07/29 12:51:34;;;;;;;4.30;2.17;;;;;;;29.66;45.89;99636.34;5095906;28;20028;-65
2023/07/29 12:54:00;;;;;;;3.10;1.55;;;;;;;29.75;45.30;99641.09;5095809;28;20040;-65
2023/07/29 12:56:26;;;;;;;2.67;1.45;;;;;;;29.38;45.57;99646.66;5095811;28;20044;-65
2023/07/29 12:58:52;;;;;;;4.82;1.73;;;;;;;28.80;45.80;99644.72;5095558;28;20040;-63
2023/07/29 13:01:18;;;;;;;4.90;1.70;;;;;;;29.01;46.03;99636.03;5096923;28;20028;-65
2023/07/29 13:03:47;;;;;;;2.63;1.98;;;;;;;28.74;45.00;99634.97;5096380;28;20067;-64
2023/07/29 13:06:13;;;;;;;2.78;1.77;;;;;;;28.85;44.66;99630.91;5097181;28;20115;-66
2023/07/29 13:08:38;;;;;;;4.82;1.95;;;;;;;29.20;44.71;99632.00;5096483;28;20457;-66
2023/07/29 13:11:04;;;;;;;12.38;2.75;;;;;;;29.58;44.24;99639.06;5096579;28;20074;-66
2023/07/29 13:13:30;;;;;;;4.05;2.00;;;;;;;30.11;43.89;99621.72;5097042;28;20028;-66
2023/07/29 13:15:55;;;;;;;3.65;1.67;;;;;;;29.82;42.38;99614.00;5097769;28;20489;-66
2023/07/29 13:18:21;;;;;;;2.28;1.58;;;;;;;29.68;42.60;99614.13;5096314;28;20051;-65
2023/07/29 13:20:47;;;;;;;4.28;1.60;;;;;;;29.84;44.00;99611.75;5095815;28;20028;-65
2023/07/29 13:23:12;;;;;;;2.28;1.30;;;;;;;29.75;43.96;99608.97;5096036;28;20089;-66
2023/07/29 13:25:37;;;;;;;4.30;1.95;;;;;;;29.73;45.34;99613.94;5096856;28;20453;-65
2023/07/29 13:28:03;;;;;;;3.05;1.60;;;;;;;29.19;44.65;99604.91;5095845;28;20153;-65
2023/07/29 13:30:29;;;;;;;2.92;1.85;;;;;;;29.14;45.51;99614.06;5095439;28;20036;-65
2023/07/29 13:32:54;;;;;;;2.50;1.75;;;;;;;29.19;45.85;99613.13;5095184;28;20033;-64
2023/07/29 13:35:20;;;;;;;2.78;2.10;;;;;;;29.07;44.84;99604.66;5095484;28;20509;-66
2023/07/29 13:37:45;;;;;;;4.60;2.28;;;;;;;28.78;45.31;99618.75;5095220;28;20040;-66
2023/07/29 13:40:10;;;;;;;3.45;1.60;;;;;;;28.67;46.11;99615.41;5095479;28;20032;-66
2023/07/29 13:42:36;;;;;;;2.78;1.52;;;;;;;28.23;46.15;99622.34;5095935;28;20051;-66
2023/07/29 13:45:02;;;;;;;3.40;1.50;;;;;;;28.02;46.37;99618.41;5095535;28;20123;-66
2023/07/29 13:47:27;;;;;;;2.60;1.73;;;;;;;27.88;48.36;99623.88;5095254;28;20039;-66
2023/07/29 13:49:53;;;;;;;3.35;1.90;;;;;;;27.89;47.81;99621.94;5094835;28;20036;-66
2023/07/29 13:52:18;;;;;;;3.65;2.20;;;;;;;27.78;48.42;99624.88;5095252;28;20039;-66
2023/07/29 13:54:44;;;;;;;3.55;1.75;;;;;;;27.40;48.92;99623.34;5097551;28;20040;-66
2023/07/29 13:57:10;;;;;;;3.42;1.50;;;;;;;27.34;47.91;99619.88;5095172;28;20042;-65
2023/07/29 13:59:38;;;;;;;2.58;1.60;;;;;;;27.46;49.11;99622.16;5094415;28;20093;-65
2023/07/29 14:02:05;;;;;;;4.30;2.03;;;;;;;27.53;49.35;99628.03;5094822;28;20036;-66
2023/07/29 14:04:30;;;;;;;3.05;1.92;;;;;;;27.39;49.53;99624.47;5095429;28;20059;-66
2023/07/29 14:06:56;;;;;;;3.25;1.77;;;;;;;27.18;48.93;99626.69;5094936;28;20392;-66
2023/07/29 14:09:21;;;;;;;3.00;1.80;;;;;;;27.15;49.66;99632.78;5094894;28;20400;-66
2023/07/29 14:11:46;;;;;;;3.88;1.80;;;;;;;27.12;49.89;99623.22;5094711;28;20557;-66
2023/07/29 14:14:12;;;;;;;3.45;2.17;;;;;;;27.21;50.28;99621.47;5094997;28;20028;-66
2023/07/29 14:16:37;;;;;;;3.28;1.60;;;;;;;27.16;50.55;99612.53;5095154;28;20089;-66
2023/07/29 14:19:03;;;;;;;3.40;1.88;;;;;;;27.30;51.36;99625.13;5093645;28;20042;-66
2023/07/29 14:21:28;;;;;;;2.15;1.60;;;;;;;27.18;49.02;99611.09;5093007;28;20123;-65
2023/07/29 14:23:54;;;;;;;3.72;1.92;;;;;;;27.24;49.94;99620.84;5097011;28;20127;-65
2023/07/29 14:26:19;;;;;;;2.45;1.42;;;;;;;27.18;49.64;99624.78;5097908;28;20048;-66
2023/07/29 14:28:44;;;;;;;4.00;1.83;;;;;;;27.02;48.91;99629.66;5100243;28;20040;-66
2023/07/29 14:31:10;;;;;;;3.50;1.60;;;;;;;27.02;49.16;99631.56;5100918;28;20040;-64
2023/07/29 14:33:35;;;;;;;2.90;1.90;;;;;;;26.85;48.42;99634.81;5097528;28;20043;-66
2023/07/29 14:36:03;;;;;;;3.30;1.70;;;;;;;26.83;48.80;99631.59;5095279;28;20049;-64
2023/07/29 14:38:28;;;;;;;2.38;1.63;;;;;;;26.75;48.60;99630.31;5095925;28;20085;-64
2023/07/29 14:40:56;;;;;;;2.15;1.58;;;;;;;26.79;51.03;99628.63;5093712;28;20039;-56
2023/07/29 14:43:22;;;;;;;3.03;1.67;;;;;;;26.66;50.71;99623.88;5093688;28;20036;-61
2023/07/29 14:45:48;;;;;;;1.98;1.42;;;;;;;26.59;51.59;99617.97;5093592;28;20052;-65
2023/07/29 14:48:13;;;;;;;3.08;1.77;;;;;;;26.57;52.67;99620.19;5093510;28;20047;-62
2023/07/29 14:50:39;;;;;;;2.88;1.77;;;;;;;26.52;51.44;99621.06;5093044;28;20035;-63
2023/07/29 14:53:04;;;;;;;3.50;1.65;;;;;;;26.58;51.08;99613.63;5092126;28;20497;-63
2023/07/29 14:55:29;;;;;;;2.80;1.75;;;;;;;26.55;51.78;99616.97;5093248;28;20032;-63
2023/07/29 14:57:55;;;;;;;3.78;1.98;;;;;;;26.51;51.05;99618.63;5093480;28;20044;-63
2023/07/29 15:00:20;;;;;;;3.90;1.88;;;;;;;26.64;51.87;99625.28;5092935;28;20052;-63
2023/07/29 15:02:45;;;;;;;2.58;1.70;;;;;;;26.78;52.16;99618.00;5093193;28;20062;-63
2023/07/29 15:05:11;;;;;;;2.80;1.80;;;;;;;26.85;52.42;99621.16;5091030;28;20097;-63
2023/07/29 15:07:36;;;;;;;2.90;1.73;;;;;;;26.66;51.79;99618.44;5091889;28;20576;-61
2023/07/29 15:10:02;;;;;;;2.42;1.60;;;;;;;26.72;51.87;99616.44;5091793;28;20028;-62
2023/07/29 15:12:28;;;;;;;2.92;1.73;;;;;;;26.56;50.25;99615.84;5092972;28;20508;-63
2023/07/29 15:14:53;;;;;;;2.65;1.90;;;;;;;26.67;51.43;99625.53;5092977;28;20123;-62
2023/07/29 15:17:18;;;;;;;2.60;1.60;;;;;;;26.67;51.23;99614.59;5092775;28;20036;-62
2023/07/29 15:19:44;;;;;;;2.33;1.67;;;;;;;26.73;51.78;99621.63;5092617;28;20507;-63
2023/07/29 15:22:09;;;;;;;2.95;1.70;;;;;;;26.66;51.57;99623.88;5092704;28;20038;-62
2023/07/29 15:24:34;;;;;;;5.50;2.15;;;;;;;26.46;49.95;99621.44;5092844;28;20745;-63
2023/07/29 15:27:00;;;;;;;3.30;2.30;;;;;;;26.42;51.17;99614.94;5091585;28;20035;-63
2023/07/29 15:29:25;;;;;;;2.63;1.80;;;;;;;26.31;51.45;99610.69;5091173;28;20042;-62
2023/07/29 15:31:50;;;;;;;3.22;1.83;;;;;;;26.34;53.01;99607.38;5092759;28;20081;-62
2023/07/29 15:34:16;;;;;;;3.33;1.98;;;;;;;26.34;54.34;99605.44;5092735;28;20393;-63
2023/07/29 15:36:41;;;;;;;4.18;2.60;;;;;;;26.30;53.03;99604.41;5092494;28;20036;-62
2023/07/29 15:39:08;;;;;;;4.18;1.77;;;;;;;26.20;53.87;99602.63;5091156;28;20486;-61
2023/07/29 15:41:33;;;;;;;3.65;1.85;;;;;;;26.21;55.13;99597.97;5091747;28;20039;-62
2023/07/29 15:43:59;;;;;;;2.35;1.88;;;;;;;26.19;54.10;99597.47;5091271;28;20040;-62
2023/07/29 15:46:25;;;;;;;2.92;2.10;;;;;;;26.16;54.69;99596.13;5092532;28;20040;-63